Time;durP1;ratioP1;P1;durP2;ratioP2;P2;SDS_P1;SDS_P2;PMS_P1;PMS_P2;Temp;Humidity;BMP_temperature;BMP_pressure;BME280_temperature;BME280_humidity;BME280_pressure;Samples;Min_cycle;Max_cycle;Signal;HPM_P1;HPM_P2
2021/09/28 00:01:08;;;;;;;7.10;3.92;;;;;;;14.80;68.67;101271.98;1664178;85;20903;-81
2021/09/28 00:03:37;;;;;;;7.67;4.35;;;;;;;14.77;68.67;101269.01;1661143;84;20866;-81
2021/09/28 00:06:03;;;;;;;9.35;4.20;;;;;;;14.76;68.71;101269.05;1659064;84;20951;-81
2021/09/28 00:08:29;;;;;;;8.28;4.40;;;;;;;14.72;68.73;101277.37;1656240;84;21470;-81
2021/09/28 00:10:55;;;;;;;6.90;4.37;;;;;;;14.70;68.74;101266.13;1652249;84;20976;-81
2021/09/28 00:13:21;;;;;;;7.77;4.60;;;;;;;14.69;68.75;101264.87;1664090;84;21029;-81
2021/09/28 00:15:47;;;;;;;9.65;4.17;;;;;;;14.67;68.77;101270.55;1661862;84;21635;-81
2021/09/28 00:18:13;;;;;;;11.27;4.33;;;;;;;14.65;68.76;101271.89;1643921;84;20864;-81
2021/09/28 00:20:39;;;;;;;5.10;4.17;;;;;;;14.64;68.80;101272.78;1656383;84;20930;-81
2021/09/28 00:23:07;;;;;;;5.40;4.13;;;;;;;14.62;68.82;101267.20;1656935;84;20886;-81
2021/09/28 00:25:33;;;;;;;8.85;3.92;;;;;;;14.59;68.80;101269.42;1646247;86;20966;-81
2021/09/28 00:27:59;;;;;;;7.43;4.77;;;;;;;14.56;68.81;101265.58;1660270;84;20969;-81
2021/09/28 00:30:25;;;;;;;6.10;4.13;;;;;;;14.54;68.88;101270.00;1651376;84;20899;-81
2021/09/28 00:32:51;;;;;;;10.08;4.37;;;;;;;14.51;68.88;101266.16;1661347;84;20925;-81
2021/09/28 00:35:17;;;;;;;8.48;5.00;;;;;;;14.49;68.92;101265.34;1664429;85;20919;-81
2021/09/28 00:37:43;;;;;;;10.00;4.93;;;;;;;14.47;68.93;101271.88;1673388;84;21041;-81
2021/09/28 00:40:10;;;;;;;5.00;4.13;;;;;;;14.44;68.92;101271.94;1651907;85;20877;-81
2021/09/28 00:42:36;;;;;;;9.45;4.53;;;;;;;14.42;68.93;101269.81;1662778;84;20926;-81
2021/09/28 00:45:03;;;;;;;8.65;4.70;;;;;;;14.40;68.96;101271.56;1658452;84;20930;-81
2021/09/28 00:47:30;;;;;;;8.05;4.62;;;;;;;14.37;68.98;101271.63;1662972;84;20958;-81
2021/09/28 00:49:57;;;;;;;5.53;3.80;;;;;;;14.36;68.98;101273.81;1656588;84;20906;-81
2021/09/28 00:52:23;;;;;;;9.98;4.00;;;;;;;14.34;69.00;101276.89;1663977;84;20955;-81
2021/09/28 00:54:55;;;;;;;6.80;3.95;;;;;;;14.31;69.00;101273.50;1663594;84;20888;-81
2021/09/28 00:57:21;;;;;;;8.60;5.03;;;;;;;14.27;69.03;101270.55;1660313;84;20916;-81
2021/09/28 00:59:48;;;;;;;10.57;4.40;;;;;;;14.23;69.07;101275.81;1658726;84;20885;-81
2021/09/28 01:02:14;;;;;;;10.45;4.85;;;;;;;14.22;69.12;101269.34;1659171;84;20971;-80
2021/09/28 01:04:41;;;;;;;8.13;4.80;;;;;;;14.21;69.14;101271.52;1664132;85;21376;-80
2021/09/28 01:07:09;;;;;;;8.70;4.62;;;;;;;14.17;69.12;101272.03;1660232;84;21446;-81
2021/09/28 01:09:38;;;;;;;7.85;4.78;;;;;;;14.15;69.13;101267.30;1651729;85;20974;-80
2021/09/28 01:12:07;;;;;;;13.65;4.78;;;;;;;14.11;69.15;101265.66;1660736;84;20951;-80
2021/09/28 01:14:41;;;;;;;7.75;4.75;;;;;;;14.07;69.16;101267.05;1659673;84;20922;-81
2021/09/28 01:17:16;;;;;;;9.68;5.08;;;;;;;14.04;69.18;101267.10;1663407;84;20954;-81
2021/09/28 01:19:43;;;;;;;;;;;;;;;14.00;69.23;101270.23;1656333;84;20933;-81
2021/09/28 01:22:12;;;;;;;7.35;4.53;;;;;;;13.99;69.44;101271.57;1661467;84;20261;-81
2021/09/28 01:24:41;;;;;;;7.90;4.50;;;;;;;13.97;69.29;101272.04;1664015;85;20953;-81
2021/09/28 01:27:09;;;;;;;11.33;4.35;;;;;;;13.93;69.27;101270.38;1660193;85;20917;-81
2021/09/28 01:29:35;;;;;;;8.23;4.50;;;;;;;13.91;69.32;101267.81;1664451;84;21718;-81
2021/09/28 01:32:05;;;;;;;10.45;4.47;;;;;;;13.89;69.31;101272.19;1664123;85;20963;-81
2021/09/28 01:34:32;;;;;;;15.13;5.33;;;;;;;13.83;69.28;101268.40;1663015;84;20933;-81
2021/09/28 01:36:58;;;;;;;6.27;4.33;;;;;;;13.80;69.35;101279.71;1659273;84;20906;-81
2021/09/28 01:39:24;;;;;;;6.03;4.60;;;;;;;13.77;69.42;101277.61;1664229;84;21417;-81
2021/09/28 01:41:53;;;;;;;11.28;4.70;;;;;;;13.75;69.45;101272.89;1658966;84;20961;-81
2021/09/28 01:44:21;;;;;;;9.05;4.78;;;;;;;13.72;69.43;101273.80;1661395;84;21514;-81
2021/09/28 01:46:50;;;;;;;8.88;4.47;;;;;;;13.69;69.47;101273.00;1663036;84;20960;-81
2021/09/28 01:49:20;;;;;;;9.33;5.67;;;;;;;13.68;69.51;101272.58;1640668;84;92970;-81
2021/09/28 01:51:47;;;;;;;7.87;4.60;;;;;;;13.65;69.51;101267.00;1633279;86;20986;-81
2021/09/28 01:54:13;;;;;;;9.95;4.80;;;;;;;13.63;69.57;101276.56;1621015;87;21554;-81
2021/09/28 01:56:39;;;;;;;7.58;4.42;;;;;;;13.57;69.51;101273.63;1614282;87;20971;-81
2021/09/28 01:59:07;;;;;;;8.63;4.43;;;;;;;13.54;69.56;101279.32;1634081;87;20965;-81
2021/09/28 02:01:33;;;;;;;6.95;4.47;;;;;;;13.51;69.59;101286.76;1628046;87;20991;-81
2021/09/28 02:04:00;;;;;;;7.45;4.12;;;;;;;13.47;69.62;101283.80;1623168;87;20983;-81
2021/09/28 02:06:27;;;;;;;6.12;4.30;;;;;;;13.42;69.59;101273.92;1632922;87;20962;-81
2021/09/28 02:08:53;;;;;;;7.33;4.58;;;;;;;13.37;69.64;101274.45;1623201;87;21399;-81
2021/09/28 02:11:21;;;;;;;9.08;4.60;;;;;;;13.35;69.69;101279.25;1611242;87;20991;-81
2021/09/28 02:13:49;;;;;;;8.05;4.62;;;;;;;13.30;69.68;101271.98;1623240;87;20920;-81
2021/09/28 02:16:18;;;;;;;8.03;4.67;;;;;;;13.25;69.73;101272.05;1640103;87;20944;-81
2021/09/28 02:18:44;;;;;;;8.05;4.78;;;;;;;13.22;69.78;101270.80;1633932;85;20954;-81
2021/09/28 02:21:10;;;;;;;9.60;4.87;;;;;;;13.19;69.83;101278.64;1626107;86;21576;-81
2021/09/28 02:23:36;;;;;;;6.20;4.80;;;;;;;13.18;69.90;101274.33;1613790;87;20900;-81
2021/09/28 02:26:03;;;;;;;15.32;4.78;;;;;;;13.17;69.89;101276.51;1636690;86;21145;-81
2021/09/28 02:28:29;;;;;;;9.18;5.47;;;;;;;13.13;69.88;101275.66;1616489;87;20979;-81
2021/09/28 02:30:56;;;;;;;9.83;5.50;;;;;;;13.12;69.94;101284.34;1627141;87;20931;-81
2021/09/28 02:33:22;;;;;;;11.50;5.17;;;;;;;13.10;69.91;101276.16;1616384;87;20931;-81
2021/09/28 02:35:48;;;;;;;7.20;4.80;;;;;;;13.06;69.93;101279.68;1626190;87;21676;-81
2021/09/28 02:38:21;;;;;;;7.47;5.20;;;;;;;13.02;70.00;101280.61;1630777;87;20916;-81
2021/09/28 02:40:48;;;;;;;6.55;4.70;;;;;;;13.00;70.08;101278.51;1632817;87;20979;-81
2021/09/28 02:43:14;;;;;;;7.27;5.07;;;;;;;12.99;70.08;101278.09;1622483;87;20919;-80
2021/09/28 02:45:42;;;;;;;8.27;4.50;;;;;;;12.97;70.13;101283.75;1629797;87;20960;-80
2021/09/28 02:48:08;;;;;;;9.95;5.10;;;;;;;12.97;70.14;101282.45;1628048;87;21043;-80
2021/09/28 02:50:34;;;;;;;10.03;5.42;;;;;;;12.92;70.18;101282.08;1623626;86;20917;-80
2021/09/28 02:53:02;;;;;;;7.70;5.40;;;;;;;12.91;70.22;101279.06;1646044;87;20969;-80
2021/09/28 02:55:28;;;;;;;8.40;5.37;;;;;;;12.90;70.26;101276.48;1634356;86;20960;-81
2021/09/28 02:57:56;;;;;;;10.40;5.35;;;;;;;12.90;70.29;101276.05;1631467;87;20980;-81
2021/09/28 03:00:22;;;;;;;14.50;4.90;;;;;;;12.89;70.31;101269.14;1656560;86;20968;-81
2021/09/28 03:02:48;;;;;;;6.03;5.42;;;;;;;12.89;70.32;101270.87;1651269;85;20921;-81
2021/09/28 03:05:14;;;;;;;11.17;4.87;;;;;;;12.88;70.35;101274.36;1642683;86;20965;-81
2021/09/28 03:07:40;;;;;;;11.77;4.90;;;;;;;12.81;70.51;101263.65;1656453;86;20956;-81
2021/09/28 03:10:07;;;;;;;14.40;6.67;;;;;;;12.81;70.51;101263.65;1648162;86;21418;-81
2021/09/28 03:12:33;;;;;;;8.83;5.60;;;;;;;12.87;70.48;101291.67;1703542;82;20870;-81
2021/09/28 03:14:59;;;;;;;8.50;4.83;;;;;;;12.88;70.53;101287.34;1703777;83;20960;-81
2021/09/28 03:17:25;;;;;;;8.20;4.93;;;;;;;12.88;70.57;101288.19;1693669;83;20904;-81
2021/09/28 03:19:52;;;;;;;7.23;4.93;;;;;;;12.88;70.58;101285.59;1695103;82;20904;-81
2021/09/28 03:22:28;;;;;;;7.90;5.22;;;;;;;12.87;70.61;101290.38;1690709;84;20906;-81
2021/09/28 03:24:54;;;;;;;8.63;5.03;;;;;;;12.88;70.66;101292.52;1704463;83;21638;-81
2021/09/28 03:27:19;;;;;;;10.80;5.13;;;;;;;12.90;70.72;101285.58;1696070;83;20926;-81
2021/09/28 03:29:45;;;;;;;9.13;5.67;;;;;;;12.92;70.72;101287.27;1702836;83;20868;-81
2021/09/28 03:32:12;;;;;;;8.90;5.50;;;;;;;12.94;70.77;101288.55;1703293;83;20934;-81
2021/09/28 03:34:37;;;;;;;8.33;5.50;;;;;;;12.96;70.81;101293.27;1697499;84;21615;-81
2021/09/28 03:37:04;;;;;;;9.90;5.47;;;;;;;12.99;70.83;101291.07;1704021;83;26520;-81
2021/09/28 03:39:32;;;;;;;23.20;6.37;;;;;;;13.01;70.87;101292.73;1695631;82;20948;-81
2021/09/28 03:41:59;;;;;;;6.40;4.97;;;;;;;13.05;70.88;101296.14;1690534;84;20941;-81
2021/09/28 03:44:25;;;;;;;8.58;5.45;;;;;;;13.06;70.94;101293.52;1683413;84;21437;-81
2021/09/28 03:46:51;;;;;;;10.35;5.42;;;;;;;13.09;70.98;101297.81;1695324;83;20917;-81
2021/09/28 03:49:17;;;;;;;10.97;5.30;;;;;;;13.16;71.00;101296.42;1704298;83;20953;-81
2021/09/28 03:51:43;;;;;;;12.03;6.03;;;;;;;13.16;71.00;101296.42;1701409;83;20866;-81
2021/09/28 03:54:09;;;;;;;6.90;4.90;;;;;;;13.18;71.05;101303.75;1704189;83;21387;-80
2021/09/28 03:56:35;;;;;;;11.28;5.20;;;;;;;13.22;71.08;101307.16;1703425;82;20957;-81
2021/09/28 03:59:01;;;;;;;9.20;5.23;;;;;;;13.23;71.11;101304.54;1683880;82;20928;-81
2021/09/28 04:01:28;;;;;;;8.40;5.25;;;;;;;13.27;71.18;101300.59;1700367;83;20929;-81
2021/09/28 04:03:54;;;;;;;13.57;5.77;;;;;;;13.29;71.13;101297.53;1698854;82;20898;-78
2021/09/28 04:06:20;;;;;;;9.30;5.37;;;;;;;13.31;71.20;101308.75;1703140;82;20902;-81
2021/09/28 04:08:53;;;;;;;10.35;5.53;;;;;;;13.32;71.22;101307.87;1701744;84;20926;-81
2021/09/28 04:11:19;;;;;;;9.07;5.57;;;;;;;13.35;71.24;101309.13;1694323;82;20926;-81
2021/09/28 04:13:47;;;;;;;11.63;4.97;;;;;;;13.35;71.24;101303.48;1699079;83;20878;-81
2021/09/28 04:16:13;;;;;;;10.95;5.30;;;;;;;13.37;71.29;101308.66;1698962;83;21100;-81
2021/09/28 04:18:39;;;;;;;8.00;5.47;;;;;;;13.38;71.35;101306.03;1696282;84;21100;-81
2021/09/28 04:21:08;;;;;;;13.95;5.22;;;;;;;13.40;71.34;101311.20;1695371;82;21041;-81
2021/09/28 04:23:34;;;;;;;9.18;5.40;;;;;;;13.40;71.34;101310.77;1702304;82;21034;-81
2021/09/28 04:26:02;;;;;;;9.20;5.58;;;;;;;13.40;71.35;101314.66;1698634;82;21138;-80
2021/09/28 04:28:29;;;;;;;7.08;5.12;;;;;;;13.39;71.36;101315.98;1694919;82;21045;-81
2021/09/28 04:30:55;;;;;;;11.95;5.92;;;;;;;13.37;71.40;101323.80;1699960;82;21651;-81
2021/09/28 04:33:21;;;;;;;11.60;5.28;;;;;;;13.38;71.46;101331.16;1703093;82;21112;-81
2021/09/28 04:35:48;;;;;;;7.93;5.37;;;;;;;13.38;71.50;101329.41;1700555;82;21048;-81
2021/09/28 04:38:14;;;;;;;9.25;5.60;;;;;;;13.37;71.50;101321.64;1697977;84;21045;-81
2021/09/28 04:40:42;;;;;;;9.35;5.22;;;;;;;13.36;71.54;101332.92;1695066;83;21092;-81
2021/09/28 04:43:08;;;;;;;10.70;5.50;;;;;;;13.35;71.55;101327.30;1700942;82;21512;-81
2021/09/28 04:45:34;;;;;;;10.63;5.33;;;;;;;13.37;71.60;101329.44;1694723;81;20930;-81
2021/09/28 04:48:00;;;;;;;12.00;5.83;;;;;;;13.38;71.64;101330.71;1702794;81;21096;-81
2021/09/28 04:50:26;;;;;;;11.10;5.40;;;;;;;13.41;71.68;101337.16;1701156;82;21054;-81
2021/09/28 04:52:56;;;;;;;9.18;5.47;;;;;;;13.44;71.67;101337.55;1695989;82;21100;-81
2021/09/28 04:55:22;;;;;;;8.77;5.40;;;;;;;13.46;71.70;101333.19;1698037;81;20954;-81
2021/09/28 04:57:48;;;;;;;9.10;5.93;;;;;;;13.48;71.71;101345.71;1703774;82;20937;-81
2021/09/28 05:00:16;;;;;;;7.62;5.40;;;;;;;13.50;71.73;101338.31;1693943;83;21036;-80
2021/09/28 05:02:44;;;;;;;21.50;6.12;;;;;;;13.52;71.77;101344.30;1689661;84;26605;-80
2021/09/28 05:05:10;;;;;;;9.13;5.10;;;;;;;13.56;71.81;101351.61;1710213;82;20984;-80
2021/09/28 05:07:38;;;;;;;10.58;5.40;;;;;;;13.59;71.82;101345.92;1696579;83;21028;-80
2021/09/28 05:10:05;;;;;;;9.07;5.20;;;;;;;13.61;71.84;101352.84;1701224;84;21044;-80
2021/09/28 05:12:32;;;;;;;8.63;5.83;;;;;;;13.63;71.87;101348.03;1701103;84;21071;-81
2021/09/28 05:14:58;;;;;;;9.40;5.17;;;;;;;13.66;71.88;101350.58;1695582;83;21116;-81
2021/09/28 05:17:26;;;;;;;10.78;5.50;;;;;;;13.69;71.92;101351.83;1701541;83;21114;-81
2021/09/28 05:19:52;;;;;;;9.00;5.08;;;;;;;13.72;71.96;101354.38;1701203;83;21123;-81
2021/09/28 05:22:20;;;;;;;12.35;6.03;;;;;;;13.75;71.97;101351.72;1696093;83;21120;-81
2021/09/28 05:24:46;;;;;;;10.30;5.43;;;;;;;13.80;71.97;101351.64;1698298;82;21049;-81
2021/09/28 05:27:13;;;;;;;10.13;5.20;;;;;;;13.80;71.96;101356.40;1700419;83;21086;-81
2021/09/28 05:29:39;;;;;;;16.23;6.30;;;;;;;13.81;71.98;101355.95;1703160;82;21107;-81
2021/09/28 05:32:07;;;;;;;9.90;5.93;;;;;;;13.82;72.03;101361.12;1699970;82;21005;-81
2021/09/28 05:34:36;;;;;;;9.95;6.08;;;;;;;13.83;72.03;101358.09;1692862;84;20985;-81
2021/09/28 05:37:02;;;;;;;8.38;5.55;;;;;;;13.85;72.04;101359.78;1698660;82;21107;-81
2021/09/28 05:39:28;;;;;;;9.30;5.80;;;;;;;13.87;72.07;101357.15;1694797;82;21532;-81
2021/09/28 05:41:54;;;;;;;10.18;5.53;;;;;;;13.89;72.10;101354.94;1702443;82;21080;-81
2021/09/28 05:44:20;;;;;;;11.67;6.13;;;;;;;13.94;72.14;101358.76;1693723;82;20976;-81
2021/09/28 05:46:46;;;;;;;10.70;5.70;;;;;;;13.99;72.14;101360.84;1700848;82;20996;-81
2021/09/28 05:49:13;;;;;;;8.78;5.97;;;;;;;14.02;72.16;101364.68;1702154;82;20995;-81
2021/09/28 05:51:48;;;;;;;12.43;5.97;;;;;;;14.04;72.10;101368.08;1696903;82;21043;-81
2021/09/28 05:54:18;;;;;;;10.10;6.00;;;;;;;14.04;72.13;101369.37;1639385;85;21117;-81
2021/09/28 05:56:42;;;;;;;9.43;5.53;;;;;;;14.06;72.18;101367.61;1641215;85;21111;-81
2021/09/28 05:59:08;;;;;;;10.63;5.20;;;;;;;13.96;72.11;101354.39;1629420;85;26571;-81
2021/09/28 06:01:40;;;;;;;8.80;5.60;;;;;;;13.96;72.11;101354.39;1701140;82;21021;-81
2021/09/28 06:04:06;;;;;;;10.00;5.85;;;;;;;14.11;72.27;101373.58;1697978;82;21044;-81
2021/09/28 06:06:33;;;;;;;10.43;5.25;;;;;;;14.15;72.25;101369.19;1697060;82;21533;-81
2021/09/28 06:09:02;;;;;;;10.25;5.10;;;;;;;14.17;72.22;101377.38;1686935;82;21111;-81
2021/09/28 06:11:28;;;;;;;13.55;5.50;;;;;;;14.19;72.27;101371.70;1695622;82;21565;-81
2021/09/28 06:13:54;;;;;;;8.97;5.33;;;;;;;14.22;72.35;101371.64;1694277;84;21513;-81
2021/09/28 06:16:20;;;;;;;10.13;5.80;;;;;;;14.28;72.44;101374.57;1679514;82;21055;-81
2021/09/28 06:18:46;;;;;;;10.70;5.50;;;;;;;14.29;72.26;101381.48;1700767;84;21108;-81
2021/09/28 06:21:13;;;;;;;16.13;5.53;;;;;;;14.31;72.19;101377.56;1691392;82;21771;-81
2021/09/28 06:23:40;;;;;;;11.12;5.25;;;;;;;14.31;72.26;101381.02;1700790;82;21156;-81
2021/09/28 06:26:06;;;;;;;7.90;4.62;;;;;;;14.35;72.39;101381.38;1699515;83;20955;-81
2021/09/28 06:28:32;;;;;;;8.73;5.58;;;;;;;14.43;72.40;101386.46;1695780;83;21509;-81
2021/09/28 06:30:58;;;;;;;7.90;4.93;;;;;;;14.50;72.43;101389.36;1679059;83;20942;-81
2021/09/28 06:33:33;;;;;;;8.93;5.00;;;;;;;14.57;72.45;101384.41;1698557;82;20953;-81
2021/09/28 06:35:59;;;;;;;7.93;5.40;;;;;;;14.67;72.47;101390.30;1699423;82;20867;-81
2021/09/28 06:38:25;;;;;;;16.90;6.12;;;;;;;14.76;72.43;101390.96;647957;82;10019920;-81
2021/09/28 06:40:51;;;;;;;9.27;5.37;;;;;;;14.82;72.42;101389.53;1621294;86;20887;-81
2021/09/28 06:43:18;;;;;;;17.52;5.80;;;;;;;14.85;72.38;101379.05;1634395;86;21035;-81
2021/09/28 06:45:48;;;;;;;7.97;5.60;;;;;;;14.96;72.43;101388.39;1634415;85;20891;-81
2021/09/28 06:48:16;;;;;;;11.33;5.78;;;;;;;15.02;72.45;101385.65;1631525;86;39219;-81
2021/09/28 06:50:42;;;;;;;;;;;;;;;15.08;72.42;101389.39;1638903;86;20935;-81
2021/09/28 06:53:08;;;;;;;9.90;5.47;;;;;;;15.15;72.49;101394.43;1646736;85;20142;-81
2021/09/28 06:55:35;;;;;;;11.17;5.67;;;;;;;15.20;72.42;101387.38;1628635;86;20934;-81
2021/09/28 06:58:01;;;;;;;11.53;5.30;;;;;;;15.24;72.39;101397.27;1648494;85;21020;-81
2021/09/28 07:00:27;;;;;;;12.20;6.10;;;;;;;15.26;72.40;101399.40;1640970;85;20910;-81
2021/09/28 07:02:53;;;;;;;8.47;5.20;;;;;;;15.28;72.38;101400.67;1645403;85;20922;-81
2021/09/28 07:05:20;;;;;;;7.87;5.10;;;;;;;15.30;72.45;101397.58;1649910;85;20871;-81
2021/09/28 07:07:46;;;;;;;11.78;5.97;;;;;;;15.29;72.37;101398.03;1647342;85;20962;-81
2021/09/28 07:10:12;;;;;;;8.27;5.40;;;;;;;15.27;72.36;101397.20;1671670;83;20877;-81
2021/09/28 07:12:40;;;;;;;8.63;5.45;;;;;;;15.27;72.44;101402.42;1669855;84;20953;-81
2021/09/28 07:15:07;;;;;;;13.38;6.30;;;;;;;15.31;72.48;101400.16;1676140;83;20917;-81
2021/09/28 07:17:34;;;;;;;10.72;5.33;;;;;;;15.33;72.42;101397.52;1664049;83;20967;-81
2021/09/28 07:20:02;;;;;;;7.92;5.55;;;;;;;15.33;72.42;101408.80;1674748;85;21453;-81
2021/09/28 07:22:28;;;;;;;9.53;5.45;;;;;;;15.30;72.36;101416.68;1647512;85;20988;-81
2021/09/28 07:24:55;;;;;;;7.65;5.55;;;;;;;15.32;72.42;101423.16;1654797;85;21069;-81
2021/09/28 07:27:22;;;;;;;7.87;5.97;;;;;;;15.33;72.43;101425.73;1637740;85;20989;-81
2021/09/28 07:29:49;;;;;;;12.73;5.42;;;;;;;15.34;72.41;101420.94;1643580;85;28192;-81
2021/09/28 07:32:16;;;;;;;10.08;5.80;;;;;;;15.35;72.41;101419.19;1640223;86;21400;-81
2021/09/28 07:34:42;;;;;;;;;;;;;;;15.35;72.39;101425.25;1649646;85;21001;-81
2021/09/28 07:37:09;;;;;;;10.28;5.65;;;;;;;15.35;72.46;101427.00;1645842;85;20204;-81
2021/09/28 07:39:36;;;;;;;11.18;5.40;;;;;;;15.35;72.40;101433.07;1651206;85;21607;-81
2021/09/28 07:42:03;;;;;;;8.27;5.40;;;;;;;15.34;72.42;101435.27;1652007;85;20989;-81
2021/09/28 07:44:29;;;;;;;7.83;5.45;;;;;;;15.33;72.30;101435.30;1633456;85;21309;-81
2021/09/28 07:46:55;;;;;;;11.40;5.97;;;;;;;15.32;72.39;101441.40;1646312;85;21688;-81
2021/09/28 07:49:21;;;;;;;14.33;5.90;;;;;;;15.35;72.47;101438.73;1639121;85;427915;-81
2021/09/28 07:51:48;;;;;;;11.00;5.63;;;;;;;15.38;72.44;101436.05;1643430;85;21885;-81
2021/09/28 07:54:14;;;;;;;8.10;5.95;;;;;;;15.41;72.44;101441.20;1644856;85;20953;-81
2021/09/28 07:56:42;;;;;;;7.97;5.83;;;;;;;15.45;72.43;101447.61;1645064;85;20954;-81
2021/09/28 07:59:08;;;;;;;10.45;5.10;;;;;;;15.49;72.37;101447.09;1652969;85;21584;-81
2021/09/28 08:01:35;;;;;;;14.63;5.83;;;;;;;15.51;72.39;101447.91;1640059;85;21148;-81
2021/09/28 08:04:03;;;;;;;12.75;5.20;;;;;;;15.55;72.41;101447.81;1640342;85;21600;-81
2021/09/28 08:06:30;;;;;;;7.78;5.58;;;;;;;15.60;72.41;101450.79;1651349;85;21557;-81
2021/09/28 08:08:56;;;;;;;8.68;5.37;;;;;;;15.62;72.39;101456.34;1650447;85;20973;-81
2021/09/28 08:11:22;;;;;;;18.40;7.23;;;;;;;15.66;72.36;101459.73;1655665;85;20983;-81
2021/09/28 08:13:48;;;;;;;7.80;5.60;;;;;;;15.65;72.32;101460.63;1653702;85;20894;-81
2021/09/28 08:16:16;;;;;;;8.65;5.28;;;;;;;15.65;72.36;101456.28;1651039;85;21470;-81
2021/09/28 08:18:43;;;;;;;12.85;6.25;;;;;;;15.67;72.34;101457.55;1591272;83;5000306;-81
2021/09/28 08:21:09;;;;;;;15.10;6.75;;;;;;;15.66;72.35;101456.69;1651417;86;20980;-81
2021/09/28 08:23:36;;;;;;;12.97;5.80;;;;;;;15.68;72.34;101462.72;1657194;85;20989;-81
2021/09/28 08:31:31;;;;;;;12.63;5.78;;;;;;;15.64;72.24;101464.99;1645216;86;21594;-81
2021/09/28 08:34:00;;;;;;;10.13;5.47;;;;;;;15.64;72.31;101471.51;1652084;85;21442;-81
2021/09/28 08:36:26;;;;;;;12.23;5.70;;;;;;;15.66;72.31;101469.73;1653292;85;21514;-81
2021/09/28 08:38:52;;;;;;;10.03;5.70;;;;;;;15.66;72.26;101466.26;1652276;86;20909;-81
2021/09/28 08:41:25;;;;;;;8.53;5.45;;;;;;;15.66;72.31;101472.33;1633063;85;21580;-81
2021/09/28 08:43:51;;;;;;;12.18;5.35;;;;;;;15.69;72.32;101481.39;1648024;85;21510;-81
2021/09/28 08:46:20;;;;;;;11.20;5.10;;;;;;;15.69;72.26;101468.35;1640218;85;20988;-81
2021/09/28 08:48:48;;;;;;;7.30;5.42;;;;;;;15.67;72.18;101476.66;1641585;85;20929;-81
2021/09/28 08:51:15;;;;;;;14.07;5.53;;;;;;;15.66;72.26;101474.94;1642638;85;20890;-81
2021/09/28 08:53:42;;;;;;;;;;;;;;;15.67;72.24;101480.56;1662563;84;21506;-81
2021/09/28 08:56:11;;;;;;;9.25;5.65;;;;;;;15.68;72.24;101481.42;1588603;89;20109;-81
2021/09/28 08:58:53;;;;;;;13.25;5.33;;;;;;;15.67;72.21;101482.31;1582835;89;21460;-81
2021/09/28 09:01:20;;;;;;;12.88;6.15;;;;;;;15.68;72.26;101480.98;1622106;88;21557;-81
2021/09/28 09:03:47;;;;;;;11.87;5.80;;;;;;;15.71;72.26;101478.30;1656405;85;20914;-81
2021/09/28 09:06:14;;;;;;;13.30;6.35;;;;;;;15.71;72.25;101486.12;1645505;85;21367;-81
2021/09/28 09:08:41;;;;;;;9.73;5.87;;;;;;;15.76;72.30;101478.19;1653157;86;21455;-81
2021/09/28 09:11:10;;;;;;;6.95;5.12;;;;;;;15.82;72.30;101474.14;1655285;85;20946;-81
2021/09/28 09:13:41;;;;;;;11.28;6.10;;;;;;;15.86;72.19;101479.23;1644055;85;20890;-81
2021/09/28 09:16:13;;;;;;;9.43;5.65;;;;;;;15.90;72.23;101472.20;1645583;86;20930;-81
2021/09/28 09:18:46;;;;;;;10.28;5.72;;;;;;;15.95;72.21;101473.39;1650539;86;21560;-81
2021/09/28 09:21:16;;;;;;;8.98;5.53;;;;;;;15.97;72.21;101471.16;1648624;85;21506;-81
2021/09/28 09:23:47;;;;;;;7.80;5.62;;;;;;;16.06;72.31;101481.37;1636520;85;20918;-81
2021/09/28 09:26:20;;;;;;;7.28;5.00;;;;;;;16.12;72.18;101479.02;1651034;85;21530;-81
2021/09/28 09:28:50;;;;;;;9.80;5.80;;;;;;;16.18;72.21;101479.73;1645401;85;21497;-81
2021/09/28 09:31:31;;;;;;;8.13;5.45;;;;;;;16.22;72.16;101483.97;1649287;85;21588;-81
2021/09/28 09:34:19;;;;;;;10.98;5.78;;;;;;;16.25;72.06;101485.65;1651495;85;20933;-81
2021/09/28 09:37:03;;;;;;;12.18;6.35;;;;;;;16.23;72.09;101483.08;1633429;85;20943;-82
2021/09/28 09:39:48;;;;;;;13.30;5.47;;;;;;;16.22;72.03;101487.03;1647545;85;21391;-82
2021/09/28 09:42:15;;;;;;;10.93;5.75;;;;;;;16.25;72.15;101490.02;1642734;85;20890;-81
2021/09/28 09:44:45;;;;;;;12.68;5.55;;;;;;;16.31;72.16;101491.16;1642152;85;21561;-81
2021/09/28 09:47:31;;;;;;;13.00;5.60;;;;;;;16.36;72.16;101487.53;1651900;85;20875;-81
2021/09/28 09:50:14;;;;;;;7.12;5.22;;;;;;;16.44;72.15;101493.41;1642823;85;20914;-81
2021/09/28 09:53:05;;;;;;;7.30;5.67;;;;;;;16.50;72.10;101492.40;1648179;85;20918;-81
2021/09/28 09:55:35;;;;;;;8.70;6.12;;;;;;;16.56;72.08;101494.85;1626968;86;20945;-81
2021/09/28 09:58:02;;;;;;;10.43;5.10;;;;;;;16.60;71.99;101500.84;1646890;86;20970;-81
2021/09/28 10:00:29;;;;;;;8.53;5.92;;;;;;;16.62;72.06;101498.60;1652243;86;20914;-81
2021/09/28 10:02:56;;;;;;;;;;;;;;;16.66;72.01;101500.69;1631532;86;20942;-81
2021/09/28 10:05:22;;;;;;;7.17;5.55;;;;;;;16.71;72.00;101502.72;1654682;85;26986;-81
2021/09/28 10:07:51;;;;;;;9.63;5.90;;;;;;;16.74;72.03;101506.11;1634490;86;21632;-81
2021/09/28 10:10:18;;;;;;;19.23;6.75;;;;;;;16.75;71.96;101500.44;1652889;86;20890;-81
2021/09/28 10:12:45;;;;;;;8.78;5.80;;;;;;;16.74;71.89;101501.34;1650928;85;20946;-81
2021/09/28 10:15:14;;;;;;;6.87;5.83;;;;;;;16.72;71.88;101495.30;1650521;86;20933;-81
2021/09/28 10:17:48;;;;;;;9.00;5.80;;;;;;;16.70;71.90;101501.02;1655213;85;20954;-81
2021/09/28 10:20:28;;;;;;;9.95;5.97;;;;;;;16.70;71.89;101502.31;1649390;85;20953;-81
2021/09/28 10:23:17;;;;;;;8.98;5.58;;;;;;;16.62;71.79;101505.13;1652478;85;20913;-81
2021/09/28 10:25:45;;;;;;;11.30;5.95;;;;;;;16.61;71.95;101505.17;1652345;85;20930;-81
2021/09/28 10:28:20;;;;;;;9.80;5.83;;;;;;;16.66;71.93;101509.38;1643211;85;20962;-81
2021/09/28 10:30:47;;;;;;;14.00;5.95;;;;;;;16.72;71.92;101507.05;1650787;85;21475;-81
2021/09/28 10:33:29;;;;;;;14.15;6.30;;;;;;;16.78;71.89;101515.58;1657005;85;20902;-81
2021/09/28 10:36:10;;;;;;;12.37;6.95;;;;;;;16.82;71.81;101520.27;1640411;85;21407;-81
2021/09/28 10:38:53;;;;;;;9.08;6.87;;;;;;;16.83;71.80;101522.84;1651765;86;20910;-81
2021/09/28 10:41:42;;;;;;;8.85;6.30;;;;;;;16.88;71.86;101519.66;1647004;85;20886;-81
2021/09/28 10:44:37;;;;;;;12.63;5.87;;;;;;;16.95;71.82;101517.73;1648755;85;20926;-81
2021/09/28 10:47:00;;;;;;;12.43;6.08;;;;;;;17.03;71.84;101518.82;1640608;85;20959;-81
2021/09/28 10:49:33;;;;;;;14.35;5.87;;;;;;;17.14;71.82;101518.06;1640042;85;21117;-81
2021/09/28 10:52:25;;;;;;;9.03;6.28;;;;;;;17.21;71.78;101516.51;1652125;85;20950;-81
2021/09/28 10:55:14;;;;;;;13.50;5.92;;;;;;;17.30;71.76;101523.23;1638786;86;109768;-81
2021/09/28 10:58:09;;;;;;;8.45;6.22;;;;;;;17.35;71.67;101522.64;1634592;86;20958;-81
2021/09/28 11:00:48;;;;;;;9.73;6.45;;;;;;;17.41;71.67;101524.22;1645342;86;20917;-81
2021/09/28 11:03:17;;;;;;;8.05;5.97;;;;;;;17.45;71.70;101534.55;1652043;85;20894;-81
2021/09/28 11:05:56;;;;;;;13.80;6.50;;;;;;;17.47;71.62;101530.58;1654018;86;20953;-81
2021/09/28 11:08:23;;;;;;;7.70;5.85;;;;;;;17.49;71.60;101534.00;1652529;86;20969;-80
2021/09/28 11:10:57;;;;;;;13.03;6.65;;;;;;;17.51;71.62;101524.35;1649502;86;20926;-81
2021/09/28 11:13:30;;;;;;;10.78;7.25;;;;;;;17.50;71.55;101527.88;1642424;86;20914;-81
2021/09/28 11:16:07;;;;;;;15.55;6.90;;;;;;;17.53;71.60;101533.01;1649304;86;20926;-81
2021/09/28 11:18:34;;;;;;;12.05;6.65;;;;;;;17.53;71.55;101534.31;1656971;86;20946;-81
2021/09/28 11:21:11;;;;;;;12.75;6.87;;;;;;;17.56;71.51;101539.91;1648831;85;26319;-81
2021/09/28 11:23:41;;;;;;;12.10;7.25;;;;;;;17.57;71.53;101533.33;1645471;86;20922;-81
2021/09/28 11:26:09;;;;;;;10.48;6.87;;;;;;;17.62;71.54;101524.03;1644618;86;20957;-81
2021/09/28 11:28:35;;;;;;;13.80;7.45;;;;;;;17.68;71.52;101522.08;1651347;85;20958;-81
2021/09/28 11:31:05;;;;;;;12.75;7.55;;;;;;;17.71;71.45;101515.91;1641706;86;20997;-81
2021/09/28 11:33:41;;;;;;;11.00;7.95;;;;;;;17.62;71.19;101512.26;1653811;85;20926;-81